Time;durP1;ratioP1;P1;durP2;ratioP2;P2;SDS_P1;SDS_P2;PMS_P1;PMS_P2;Temp;Humidity;BMP_temperature;BMP_pressure;BME280_temperature;BME280_humidity;BME280_pressure;Samples;Min_cycle;Max_cycle;Signal;HPM_P1;HPM_P2
2021/04/08 00:01:13;;;;;;;0.63;0.30;;;2.40;82.90;;;;;;5036272;28;20051;-69
2021/04/08 00:03:39;;;;;;;0.43;0.40;;;2.40;83.10;;;;;;5035870;28;20095;-69
2021/04/08 00:06:04;;;;;;;0.38;0.38;;;2.30;83.10;;;;;;5036240;28;20489;-69
2021/04/08 00:08:30;;;;;;;0.35;0.35;;;2.30;83.10;;;;;;5036017;28;20052;-69
2021/04/08 00:10:56;;;;;;;2.83;0.52;;;2.30;83.00;;;;;;5036075;28;20033;-69
2021/04/08 00:13:22;;;;;;;1.85;0.50;;;2.30;83.00;;;;;;5036020;28;20389;-69
2021/04/08 00:15:47;;;;;;;0.50;0.50;;;2.30;83.10;;;;;;5036016;28;20109;-69
2021/04/08 00:18:13;;;;;;;0.30;0.30;;;2.20;83.00;;;;;;5034208;28;20026;-69
2021/04/08 00:20:38;;;;;;;0.50;0.50;;;2.20;83.10;;;;;;5035767;28;20029;-69
2021/04/08 00:23:04;;;;;;;0.35;0.30;;;2.20;83.10;;;;;;5035828;28;20026;-69
2021/04/08 00:25:30;;;;;;;0.30;0.30;;;2.20;83.20;;;;;;5035957;28;20029;-69
2021/04/08 00:27:55;;;;;;;0.25;0.25;;;2.20;83.30;;;;;;5035846;28;20097;-69
2021/04/08 00:30:21;;;;;;;0.32;0.32;;;2.10;83.30;;;;;;5035163;28;20156;-68
2021/04/08 00:32:48;;;;;;;1.52;0.50;;;2.10;83.30;;;;;;5035372;28;20083;-69
2021/04/08 00:35:13;;;;;;;0.50;0.50;;;2.10;83.40;;;;;;5035927;28;20029;-69
2021/04/08 00:37:39;;;;;;;0.55;0.50;;;2.10;83.30;;;;;;5035615;28;20017;-69
2021/04/08 00:40:13;;;;;;;0.22;0.22;;;2.10;83.40;;;;;;5035593;28;20102;-69
2021/04/08 00:42:39;;;;;;;0.32;0.32;;;2.10;83.30;;;;;;5035587;28;20067;-69
2021/04/08 00:45:07;;;;;;;1.02;0.40;;;2.10;83.30;;;;;;5035502;28;20025;-69
2021/04/08 00:47:32;;;;;;;0.70;0.70;;;2.10;83.20;;;;;;5033719;28;20029;-69
2021/04/08 00:49:58;;;;;;;0.93;0.50;;;2.10;83.30;;;;;;5035216;28;20136;-69
2021/04/08 00:52:23;;;;;;;0.77;0.52;;;2.10;83.30;;;;;;5035299;28;20013;-69
2021/04/08 00:54:50;;;;;;;1.02;0.68;;;2.10;83.20;;;;;;5035305;28;20091;-69
2021/04/08 00:57:15;;;;;;;0.55;0.38;;;2.10;83.20;;;;;;5035306;28;20381;-69
2021/04/08 00:59:41;;;;;;;0.50;0.50;;;2.00;83.30;;;;;;5035098;28;20022;-69
2021/04/08 01:02:07;;;;;;;0.77;0.57;;;2.00;83.30;;;;;;5034726;28;20029;-69
2021/04/08 01:04:33;;;;;;;0.60;0.60;;;2.00;83.40;;;;;;5035186;28;20105;-69
2021/04/08 01:06:59;;;;;;;0.95;0.68;;;1.90;83.40;;;;;;5035200;28;20556;-69
2021/04/08 01:09:24;;;;;;;1.17;0.70;;;1.90;83.40;;;;;;5034966;28;20029;-69
2021/04/08 01:11:50;;;;;;;0.50;0.50;;;1.90;83.50;;;;;;5034854;28;20512;-69
2021/04/08 01:14:16;;;;;;;0.40;0.40;;;1.90;83.50;;;;;;5034992;28;20021;-68
2021/04/08 01:16:54;;;;;;;0.30;0.30;;;1.90;83.50;;;;;;5034499;28;20470;-69
2021/04/08 01:19:54;;;;;;;0.43;0.43;;;1.90;83.60;;;;;;5035017;28;20389;-69
2021/04/08 01:22:39;;;;;;;0.30;0.30;;;1.80;83.60;;;;;;5034781;28;20037;-68
2021/04/08 01:25:28;;;;;;;0.20;0.20;;;1.80;83.70;;;;;;5034717;28;20036;-69
2021/04/08 01:28:09;;;;;;;0.63;0.50;;;1.80;83.70;;;;;;5034717;28;20030;-69
2021/04/08 01:30:44;;;;;;;0.32;0.32;;;1.70;83.60;;;;;;5034007;28;20057;-69
2021/04/08 01:33:16;;;;;;;0.40;0.40;;;1.80;83.70;;;;;;5034633;28;20037;-69
2021/04/08 01:35:43;;;;;;;0.85;0.60;;;1.80;83.70;;;;;;5034744;28;20025;-69
2021/04/08 01:38:30;;;;;;;0.85;0.77;;;1.80;83.70;;;;;;5034431;28;20024;-69
2021/04/08 01:40:57;;;;;;;0.43;0.30;;;1.70;83.70;;;;;;5033688;28;20034;-69
2021/04/08 01:43:26;;;;;;;0.80;0.57;;;1.80;83.70;;;;;;5034441;28;20096;-68
2021/04/08 01:45:56;;;;;;;0.30;0.30;;;1.80;83.70;;;;;;5033871;28;20025;-69
2021/04/08 01:48:21;;;;;;;0.73;0.43;;;1.80;83.70;;;;;;5032801;28;20427;-68
2021/04/08 01:50:49;;;;;;;0.30;0.30;;;1.80;83.50;;;;;;5034348;28;20033;-68
2021/04/08 01:53:17;;;;;;;0.75;0.40;;;1.90;83.40;;;;;;5034311;28;20029;-69
2021/04/08 01:55:43;;;;;;;0.30;0.30;;;2.00;83.30;;;;;;5034119;28;20022;-69
2021/04/08 01:58:11;;;;;;;0.65;0.65;;;2.00;83.10;;;;;;5034190;28;20053;-69
2021/04/08 02:00:37;;;;;;;0.52;0.50;;;2.10;82.90;;;;;;5033789;28;20036;-69
2021/04/08 02:03:04;;;;;;;0.55;0.50;;;2.20;82.90;;;;;;5034212;28;20029;-69
2021/04/08 02:05:31;;;;;;;0.38;0.38;;;2.30;82.80;;;;;;5034156;28;20029;-69
2021/04/08 02:07:57;;;;;;;0.30;0.30;;;2.30;82.70;;;;;;5033895;28;20072;-69
2021/04/08 02:10:25;;;;;;;0.40;0.40;;;2.40;82.70;;;;;;5033860;28;20038;-69
2021/04/08 02:12:51;;;;;;;0.40;0.40;;;2.50;82.70;;;;;;5034030;28;20064;-69
2021/04/08 02:15:19;;;;;;;0.47;0.40;;;2.50;82.60;;;;;;5033341;28;20028;-68
2021/04/08 02:17:47;;;;;;;1.02;0.50;;;2.60;82.60;;;;;;5033700;28;20014;-69
2021/04/08 02:20:18;;;;;;;0.65;0.50;;;2.60;82.60;;;;;;5033777;28;20103;-69
2021/04/08 02:22:51;;;;;;;0.52;0.52;;;2.70;82.50;;;;;;5033774;28;20470;-69
2021/04/08 02:25:17;;;;;;;0.77;0.45;;;2.70;82.60;;;;;;5033709;28;20017;-69
2021/04/08 02:27:43;;;;;;;0.30;0.30;;;2.70;82.70;;;;;;5033771;28;20036;-69
2021/04/08 02:30:13;;;;;;;0.30;0.30;;;2.70;82.70;;;;;;5033007;28;20031;-69
2021/04/08 02:32:40;;;;;;;0.20;0.20;;;2.70;82.70;;;;;;5033591;28;20056;-70
2021/04/08 02:35:14;;;;;;;0.40;0.40;;;2.70;82.80;;;;;;5033549;28;20025;-69
2021/04/08 02:37:40;;;;;;;0.40;0.40;;;2.70;82.70;;;;;;5033779;28;20424;-69
2021/04/08 02:40:11;;;;;;;0.30;0.30;;;2.80;82.70;;;;;;5033401;28;20021;-69
2021/04/08 02:42:37;;;;;;;0.30;0.30;;;2.80;82.70;;;;;;5033041;28;20030;-69
2021/04/08 02:45:06;;;;;;;0.45;0.30;;;2.80;82.70;;;;;;5033318;28;20040;-68
2021/04/08 02:47:32;;;;;;;;;;;2.80;82.70;;;;;;5033762;28;20033;-69
2021/04/08 02:49:58;;;;;;;0.28;0.28;;;2.80;82.60;;;;;;5033046;28;20020;-69
2021/04/08 02:52:26;;;;;;;0.52;0.35;;;2.90;82.60;;;;;;5033231;28;20022;-69
2021/04/08 02:55:07;;;;;;;0.30;0.30;;;2.90;82.40;;;;;;5033284;28;20025;-69
2021/04/08 02:57:38;;;;;;;0.30;0.30;;;2.90;82.40;;;;;;5032684;28;20101;-69
2021/04/08 03:00:08;;;;;;;0.30;0.30;;;2.90;82.50;;;;;;5033296;28;20024;-69
2021/04/08 03:02:35;;;;;;;0.28;0.28;;;2.90;82.50;;;;;;5033208;28;20017;-69
2021/04/08 03:05:02;;;;;;;0.20;0.20;;;2.90;82.60;;;;;;5033107;28;20029;-69
2021/04/08 03:07:32;;;;;;;0.32;0.32;;;2.90;82.70;;;;;;5032944;28;20115;-68
2021/04/08 03:10:01;;;;;;;0.20;0.20;;;2.90;82.60;;;;;;5033314;28;20088;-68
2021/04/08 03:12:30;;;;;;;0.55;0.40;;;2.90;82.60;;;;;;5032995;28;20020;-69
2021/04/08 03:14:57;;;;;;;0.40;0.40;;;2.90;82.60;;;;;;5032940;28;20025;-68
2021/04/08 03:17:28;;;;;;;0.28;0.28;;;2.90;82.60;;;;;;5033075;28;20017;-69
2021/04/08 03:19:56;;;;;;;0.50;0.50;;;2.90;82.70;;;;;;5032960;28;20044;-69
2021/04/08 03:22:23;;;;;;;0.30;0.30;;;2.90;82.70;;;;;;5032998;28;20017;-69
2021/04/08 03:24:55;;;;;;;0.22;0.22;;;3.00;82.70;;;;;;5033076;28;20025;-69
2021/04/08 03:27:23;;;;;;;0.20;0.20;;;3.00;82.70;;;;;;5032473;28;20025;-69
2021/04/08 03:29:49;;;;;;;0.30;0.30;;;3.00;82.50;;;;;;5032767;28;20048;-69
2021/04/08 03:32:19;;;;;;;0.50;0.50;;;3.00;82.50;;;;;;5032967;28;20025;-69
2021/04/08 03:34:47;;;;;;;0.40;0.40;;;3.00;82.50;;;;;;5032899;28;20107;-69
2021/04/08 03:37:13;;;;;;;0.30;0.30;;;3.00;82.60;;;;;;5032717;28;20029;-69
2021/04/08 03:39:40;;;;;;;0.43;0.43;;;3.00;82.60;;;;;;5031637;28;20018;-69
2021/04/08 03:42:10;;;;;;;1.02;0.55;;;3.00;82.60;;;;;;5032539;28;20039;-68
2021/04/08 03:44:37;;;;;;;0.30;0.30;;;3.10;82.60;;;;;;5032775;28;20049;-69
2021/04/08 03:47:05;;;;;;;1.15;0.20;;;3.10;82.50;;;;;;5032880;28;20026;-69
2021/04/08 03:49:32;;;;;;;0.50;0.50;;;3.10;82.60;;;;;;5031194;28;20060;-68
2021/04/08 03:51:58;;;;;;;0.28;0.28;;;3.10;82.50;;;;;;5032813;28;20021;-69
2021/04/08 03:54:25;;;;;;;0.32;0.32;;;3.20;82.60;;;;;;5032719;28;20021;-69
2021/04/08 03:56:53;;;;;;;0.47;0.47;;;3.20;82.60;;;;;;5032204;28;20435;-68
2021/04/08 03:59:20;;;;;;;0.35;0.35;;;3.20;82.50;;;;;;5032578;28;20025;-69
2021/04/08 04:01:47;;;;;;;0.32;0.32;;;3.20;82.40;;;;;;5032611;28;20017;-69
2021/04/08 04:04:14;;;;;;;0.93;0.35;;;3.20;82.40;;;;;;5033843;28;20389;-69
2021/04/08 04:06:42;;;;;;;0.30;0.30;;;3.30;82.50;;;;;;5036289;28;20036;-69
2021/04/08 04:09:13;;;;;;;0.38;0.38;;;3.30;82.40;;;;;;5034882;28;20040;-69
2021/04/08 04:11:41;;;;;;;0.20;0.20;;;3.30;82.40;;;;;;5035669;28;20611;-69
2021/04/08 04:14:13;;;;;;;0.35;0.35;;;3.30;82.40;;;;;;5036237;28;20038;-69
2021/04/08 04:16:42;;;;;;;0.30;0.30;;;3.30;82.50;;;;;;5036014;28;20044;-69
2021/04/08 04:19:08;;;;;;;0.38;0.38;;;3.30;82.50;;;;;;5036001;28;20092;-69
2021/04/08 04:21:33;;;;;;;0.10;0.10;;;3.20;82.50;;;;;;5035890;28;20487;-69
2021/04/08 04:23:59;;;;;;;0.43;0.38;;;3.30;82.60;;;;;;5035472;28;20385;-69
2021/04/08 04:26:25;;;;;;;0.20;0.20;;;3.30;82.60;;;;;;5035934;28;20401;-69
2021/04/08 04:28:51;;;;;;;0.40;0.40;;;3.20;82.50;;;;;;5035729;28;20389;-69
2021/04/08 04:31:17;;;;;;;0.63;0.40;;;3.20;82.50;;;;;;5035770;28;20112;-69
2021/04/08 04:33:42;;;;;;;0.35;0.35;;;3.20;82.50;;;;;;5035573;28;20021;-69
2021/04/08 04:36:08;;;;;;;0.30;0.30;;;3.20;82.50;;;;;;5035610;28;20029;-69
2021/04/08 04:38:33;;;;;;;0.43;0.43;;;3.20;82.50;;;;;;5035102;28;20017;-69
2021/04/08 04:40:59;;;;;;;0.30;0.30;;;3.20;82.50;;;;;;5035561;28;20022;-69
2021/04/08 04:43:24;;;;;;;0.25;0.25;;;3.20;82.50;;;;;;5035543;28;20208;-69
2021/04/08 04:45:50;;;;;;;0.40;0.40;;;3.20;82.50;;;;;;5035550;28;20111;-70
2021/04/08 04:48:15;;;;;;;0.55;0.50;;;3.20;82.60;;;;;;5034174;28;20017;-68
2021/04/08 04:50:41;;;;;;;0.68;0.65;;;3.20;82.70;;;;;;5035065;28;20060;-69
2021/04/08 04:53:06;;;;;;;0.30;0.30;;;3.20;82.70;;;;;;5035003;28;20633;-69
2021/04/08 04:55:32;;;;;;;0.32;0.30;;;3.10;82.70;;;;;;5035200;28;20417;-68
2021/04/08 04:57:57;;;;;;;0.50;0.50;;;3.10;82.80;;;;;;5035263;28;20018;-69
2021/04/08 05:00:23;;;;;;;0.52;0.52;;;3.10;82.70;;;;;;5035303;28;20355;-69
2021/04/08 05:02:50;;;;;;;0.43;0.43;;;3.10;82.70;;;;;;5035073;28;20461;-69
2021/04/08 05:05:16;;;;;;;0.40;0.40;;;3.10;82.70;;;;;;5034869;28;20025;-69
2021/04/08 05:07:42;;;;;;;0.50;0.50;;;3.10;82.70;;;;;;5034512;28;20029;-69
2021/04/08 05:10:09;;;;;;;0.40;0.40;;;3.20;82.70;;;;;;5034986;28;20041;-69
2021/04/08 05:12:34;;;;;;;1.08;0.60;;;3.20;82.60;;;;;;5034973;28;20573;-69
2021/04/08 05:15:00;;;;;;;0.55;0.30;;;3.20;82.60;;;;;;5034309;28;20108;-69
2021/04/08 05:17:25;;;;;;;0.40;0.40;;;3.20;82.50;;;;;;5034280;28;20496;-69
2021/04/08 05:19:51;;;;;;;0.47;0.30;;;3.20;82.50;;;;;;5034730;28;20393;-69
2021/04/08 05:22:17;;;;;;;0.47;0.40;;;3.20;82.60;;;;;;5034456;28;20032;-69
2021/04/08 05:24:42;;;;;;;0.38;0.38;;;3.20;82.60;;;;;;5034615;28;20022;-69
2021/04/08 05:27:09;;;;;;;0.47;0.47;;;3.20;82.60;;;;;;5034691;28;20030;-69
2021/04/08 05:29:34;;;;;;;0.40;0.40;;;3.20;82.60;;;;;;5034450;28;20160;-69
2021/04/08 05:32:00;;;;;;;0.63;0.63;;;3.30;82.60;;;;;;5034672;28;20100;-69
2021/04/08 05:34:26;;;;;;;0.45;0.40;;;3.30;82.50;;;;;;5034521;28;20013;-69
2021/04/08 05:36:51;;;;;;;0.70;0.47;;;3.30;82.50;;;;;;5034055;28;20397;-69
2021/04/08 05:39:17;;;;;;;0.40;0.40;;;3.30;82.50;;;;;;5034416;28;20017;-69
2021/04/08 05:41:42;;;;;;;0.60;0.60;;;3.30;82.60;;;;;;5034431;28;20583;-69
2021/04/08 05:44:08;;;;;;;0.32;0.32;;;3.40;82.60;;;;;;5034259;28;20096;-69
2021/04/08 05:46:33;;;;;;;0.38;0.38;;;3.40;82.60;;;;;;5034393;28;20051;-69
2021/04/08 05:48:59;;;;;;;0.47;0.47;;;3.40;82.50;;;;;;5033991;28;20042;-69
2021/04/08 05:51:25;;;;;;;0.28;0.28;;;3.50;82.50;;;;;;5033621;28;20060;-69
2021/04/08 05:53:50;;;;;;;0.70;0.70;;;3.50;82.40;;;;;;5034223;28;20021;-69
2021/04/08 05:56:16;;;;;;;1.48;0.77;;;3.60;82.40;;;;;;5034043;28;20029;-69
2021/04/08 05:58:41;;;;;;;5.45;1.70;;;3.60;82.30;;;;;;5033967;28;20023;-69
2021/04/08 06:01:07;;;;;;;0.60;0.60;;;3.60;82.30;;;;;;5033990;28;20033;-69
2021/04/08 06:03:33;;;;;;;0.82;0.82;;;3.60;82.30;;;;;;5033975;28;20091;-69
2021/04/08 06:05:58;;;;;;;0.85;0.85;;;3.60;82.40;;;;;;5033581;28;20535;-69
2021/04/08 06:08:24;;;;;;;0.90;0.90;;;3.70;83.00;;;;;;5033838;28;20025;-69
2021/04/08 06:10:49;;;;;;;0.88;0.88;;;3.70;82.40;;;;;;5032543;28;20033;-69
2021/04/08 06:13:15;;;;;;;0.98;0.80;;;3.70;82.40;;;;;;5033790;28;20029;-69
2021/04/08 06:15:41;;;;;;;0.75;0.75;;;3.70;82.30;;;;;;5033642;28;20074;-69
2021/04/08 06:18:07;;;;;;;1.00;1.00;;;3.80;82.30;;;;;;5033487;28;20067;-69
2021/04/08 06:20:32;;;;;;;1.10;0.90;;;3.90;82.30;;;;;;5033202;28;20057;-69
2021/04/08 06:22:58;;;;;;;1.25;1.00;;;3.90;82.20;;;;;;5033630;28;20055;-69
2021/04/08 06:25:24;;;;;;;1.80;1.70;;;3.90;82.30;;;;;;5033458;28;20025;-67
2021/04/08 06:27:50;;;;;;;1.25;0.98;;;3.90;82.30;;;;;;5030483;28;20025;-68
2021/04/08 06:30:17;;;;;;;1.33;1.13;;;3.90;82.30;;;;;;5026506;28;20383;-68
2021/04/08 06:32:43;;;;;;;2.10;1.08;;;3.90;82.40;;;;;;5033178;28;20020;-68
2021/04/08 06:35:10;;;;;;;0.98;0.98;;;3.80;82.40;;;;;;5033068;28;20420;-68
2021/04/08 06:37:35;;;;;;;1.45;1.30;;;3.80;82.60;;;;;;5033180;28;20438;-67
2021/04/08 06:40:01;;;;;;;1.63;1.30;;;3.70;82.80;;;;;;5033194;28;20025;-67
2021/04/08 06:42:27;;;;;;;1.35;1.10;;;3.70;82.90;;;;;;5033180;28;20021;-68
2021/04/08 06:44:53;;;;;;;1.73;1.50;;;3.60;83.00;;;;;;5032915;28;20056;-68
2021/04/08 06:47:26;;;;;;;1.30;1.13;;;3.50;83.20;;;;;;5033171;28;20051;-68
2021/04/08 06:49:56;;;;;;;1.85;1.50;;;3.40;83.30;;;;;;5032440;28;20095;-68
2021/04/08 06:52:23;;;;;;;1.15;1.05;;;3.40;83.50;;;;;;5033037;28;20024;-68
2021/04/08 06:54:49;;;;;;;1.35;0.98;;;3.30;83.50;;;;;;5028773;28;20017;-68
2021/04/08 06:57:18;;;;;;;1.10;1.10;;;3.40;83.60;;;;;;5031520;28;20072;-68
2021/04/08 06:59:47;;;;;;;1.02;1.02;;;3.40;83.50;;;;;;5032966;28;20037;-68
2021/04/08 07:02:17;;;;;;;1.90;1.70;;;3.40;83.30;;;;;;5031800;28;20024;-68
2021/04/08 07:04:43;;;;;;;;;;;3.40;83.10;;;;;;5033078;28;20053;-68
2021/04/08 07:07:08;;;;;;;1.52;0.98;;;3.40;82.90;;;;;;5031881;28;19959;-68
2021/04/08 07:09:34;;;;;;;1.15;1.05;;;3.50;83.00;;;;;;5032897;28;20113;-68
2021/04/08 07:12:01;;;;;;;1.30;1.20;;;3.60;82.80;;;;;;5032934;28;20030;-68
2021/04/08 07:14:27;;;;;;;1.42;1.33;;;3.70;82.60;;;;;;5032995;28;20018;-68
2021/04/08 07:16:52;;;;;;;0.82;0.82;;;3.90;82.30;;;;;;5032925;28;20052;-69
2021/04/08 07:19:19;;;;;;;1.00;0.90;;;4.10;82.00;;;;;;5032657;28;20462;-69
2021/04/08 07:21:45;;;;;;;1.20;1.10;;;4.30;81.60;;;;;;5033087;28;20485;-68
2021/04/08 07:24:16;;;;;;;1.02;1.00;;;4.60;81.30;;;;;;5033011;28;20099;-68
2021/04/08 07:27:03;;;;;;;1.75;1.10;;;4.80;80.90;;;;;;5032787;28;20029;-68
2021/04/08 07:29:38;;;;;;;1.55;1.30;;;5.00;80.50;;;;;;5032861;28;20020;-68
2021/04/08 07:32:04;;;;;;;1.27;1.08;;;5.20;80.30;;;;;;5031420;28;20477;-68
2021/04/08 07:34:35;;;;;;;2.63;1.00;;;5.40;80.20;;;;;;5028698;28;20014;-68
2021/04/08 07:37:02;;;;;;;2.10;1.30;;;5.50;80.20;;;;;;5031178;28;20470;-68
2021/04/08 07:39:35;;;;;;;3.15;1.15;;;5.60;80.00;;;;;;5033668;28;20028;-68
2021/04/08 07:42:25;;;;;;;1.52;1.38;;;5.70;79.90;;;;;;5036575;28;20037;-68
2021/04/08 07:44:52;;;;;;;;;;;5.80;80.00;;;;;;5033649;28;20029;-68
2021/04/08 07:47:20;;;;;;;1.00;0.90;;;5.70;80.20;;;;;;5036081;28;19927;-68
2021/04/08 07:49:47;;;;;;;1.17;1.10;;;5.70;80.40;;;;;;5035839;28;20038;-68
2021/04/08 07:52:17;;;;;;;1.10;1.00;;;5.70;80.60;;;;;;5036426;28;20032;-68
2021/04/08 07:54:56;;;;;;;0.98;0.85;;;5.70;80.50;;;;;;5036300;28;20034;-68
2021/04/08 07:57:22;;;;;;;0.82;0.82;;;5.70;80.60;;;;;;5036013;28;20119;-67
2021/04/08 07:59:47;;;;;;;1.08;0.90;;;5.50;80.80;;;;;;5036170;28;20502;-68
2021/04/08 08:02:13;;;;;;;1.38;1.25;;;5.50;81.00;;;;;;5035692;28;20409;-68
2021/04/08 08:04:39;;;;;;;1.05;0.95;;;5.60;81.00;;;;;;5035664;28;20389;-68
2021/04/08 08:07:04;;;;;;;1.60;1.30;;;5.50;80.80;;;;;;5036105;28;20022;-68
2021/04/08 08:09:31;;;;;;;1.63;1.02;;;5.50;80.80;;;;;;5035411;28;20022;-68
2021/04/08 08:12:11;;;;;;;1.23;1.13;;;5.50;80.90;;;;;;5033295;28;20025;-68
2021/04/08 08:14:39;;;;;;;2.08;1.63;;;5.50;80.70;;;;;;5036104;28;20013;-68
2021/04/08 08:17:13;;;;;;;1.27;1.17;;;5.40;80.70;;;;;;5035435;28;20036;-68
2021/04/08 08:19:44;;;;;;;1.42;1.10;;;5.40;80.80;;;;;;5035971;28;20022;-68
2021/04/08 08:22:18;;;;;;;1.45;1.20;;;5.40;80.70;;;;;;5035990;28;20053;-68
2021/04/08 08:24:54;;;;;;;1.80;1.33;;;5.50;80.50;;;;;;5035914;28;20500;-68
2021/04/08 08:27:20;;;;;;;1.33;1.23;;;5.50;80.50;;;;;;5035587;28;20025;-69
2021/04/08 08:29:57;;;;;;;1.27;1.20;;;5.60;80.40;;;;;;5035438;28;20056;-67
2021/04/08 08:32:24;;;;;;;1.25;1.15;;;5.70;80.20;;;;;;5035257;28;20484;-69
2021/04/08 08:34:49;;;;;;;1.48;1.33;;;5.80;80.00;;;;;;5035657;28;20373;-68
2021/04/08 08:37:15;;;;;;;3.65;1.70;;;5.90;79.90;;;;;;5035479;28;20101;-68
2021/04/08 08:39:44;;;;;;;1.55;1.40;;;6.00;79.40;;;;;;5035214;28;20394;-68
2021/04/08 08:42:12;;;;;;;;;;;6.00;79.30;;;;;;5036048;28;20462;-68
2021/04/08 08:44:39;;;;;;;1.45;1.35;;;6.10;79.40;;;;;;5035459;28;20000;-68
2021/04/08 08:47:16;;;;;;;2.20;1.80;;;6.10;79.10;;;;;;5034886;28;20056;-68
2021/04/08 08:49:58;;;;;;;1.67;1.30;;;6.20;78.90;;;;;;5034900;28;20057;-68
2021/04/08 08:52:31;;;;;;;2.42;1.55;;;6.40;78.70;;;;;;5035330;28;20022;-67
2021/04/08 08:54:57;;;;;;;1.75;1.08;;;6.40;78.40;;;;;;5035389;28;20033;-68
2021/04/08 08:57:26;;;;;;;2.60;1.95;;;6.60;78.30;;;;;;5035239;28;20026;-68
2021/04/08 08:59:52;;;;;;;1.33;1.23;;;6.80;77.90;;;;;;5033473;28;20032;-67
2021/04/08 09:02:18;;;;;;;2.35;1.65;;;7.10;77.40;;;;;;5033962;28;20378;-67
2021/04/08 09:04:44;;;;;;;1.63;1.50;;;7.20;76.60;;;;;;5035008;28;20021;-68
2021/04/08 09:07:13;;;;;;;1.65;1.55;;;7.30;76.40;;;;;;5035090;28;20036;-67
2021/04/08 09:09:45;;;;;;;1.73;1.40;;;7.30;76.30;;;;;;5035019;28;20016;-68
2021/04/08 09:12:18;;;;;;;1.70;1.40;;;7.20;76.50;;;;;;5030995;28;20346;-66
2021/04/08 09:14:45;;;;;;;3.83;1.70;;;7.10;76.60;;;;;;5033264;28;20046;-66
2021/04/08 09:17:11;;;;;;;2.05;1.70;;;7.00;76.50;;;;;;5034618;28;20108;-66
2021/04/08 09:19:37;;;;;;;2.33;1.70;;;7.00;76.70;;;;;;5034881;28;20553;-67
2021/04/08 09:22:10;;;;;;;2.17;1.98;;;7.00;76.40;;;;;;5034662;28;20064;-66
2021/04/08 09:24:47;;;;;;;1.33;1.17;;;7.10;76.00;;;;;;5034787;28;20024;-66
2021/04/08 09:27:13;;;;;;;2.65;1.63;;;7.30;75.70;;;;;;5033529;28;20396;-66
2021/04/08 09:29:49;;;;;;;2.85;2.40;;;7.40;75.10;;;;;;5034094;28;20032;-66
2021/04/08 09:32:45;;;;;;;2.65;2.13;;;7.60;74.70;;;;;;5034583;28;20021;-66
2021/04/08 09:35:16;;;;;;;1.95;1.75;;;7.80;74.10;;;;;;5034598;28;20110;-67
2021/04/08 09:37:47;;;;;;;1.50;1.40;;;7.90;73.90;;;;;;5033201;28;20025;-67
2021/04/08 09:40:22;;;;;;;3.35;1.70;;;8.00;73.90;;;;;;5034340;28;20021;-66
2021/04/08 09:42:52;;;;;;;1.92;1.73;;;8.20;73.50;;;;;;5034577;28;20022;-67
2021/04/08 09:45:18;;;;;;;2.45;1.88;;;8.10;73.40;;;;;;5034421;28;20022;-67
2021/04/08 09:47:44;;;;;;;2.10;1.90;;;7.90;73.70;;;;;;5034461;28;20373;-67
2021/04/08 09:50:10;;;;;;;2.35;1.90;;;7.90;74.30;;;;;;5033913;28;20049;-66
2021/04/08 09:52:54;;;;;;;1.90;1.70;;;8.20;73.80;;;;;;5034071;28;20079;-67
2021/04/08 09:55:31;;;;;;;2.70;1.80;;;8.50;73.00;;;;;;5034209;28;20017;-66
2021/04/08 09:58:02;;;;;;;1.75;1.50;;;8.70;72.70;;;;;;5033555;28;20100;-67
2021/04/08 10:00:28;;;;;;;2.97;2.60;;;8.80;72.20;;;;;;5034039;28;20030;-66
2021/04/08 10:03:01;;;;;;;2.58;2.17;;;9.00;71.70;;;;;;5033482;28;20059;-66
2021/04/08 10:05:37;;;;;;;3.08;1.90;;;9.00;71.10;;;;;;5033895;28;20021;-67
2021/04/08 10:08:04;;;;;;;2.78;2.08;;;8.90;71.40;;;;;;5033795;28;20104;-66
2021/04/08 10:10:36;;;;;;;4.20;2.90;;;9.00;71.40;;;;;;5033806;28;20363;-66
2021/04/08 10:13:13;;;;;;;2.25;1.98;;;9.10;70.60;;;;;;5033308;28;20029;-67
2021/04/08 10:15:38;;;;;;;2.35;2.13;;;9.10;71.00;;;;;;5033626;28;20045;-66
2021/04/08 10:18:16;;;;;;;2.85;2.30;;;9.20;70.80;;;;;;5032333;28;20516;-66
2021/04/08 10:20:43;;;;;;;3.17;2.55;;;9.20;70.30;;;;;;5033665;28;20021;-67
2021/04/08 10:23:09;;;;;;;3.00;2.25;;;9.10;70.20;;;;;;5033734;28;20032;-68
2021/04/08 10:25:35;;;;;;;3.33;2.58;;;9.20;70.00;;;;;;5033566;28;20025;-68
2021/04/08 10:28:02;;;;;;;4.47;3.72;;;9.20;69.90;;;;;;5033017;28;20030;-66
2021/04/08 10:30:33;;;;;;;3.60;2.58;;;9.10;69.50;;;;;;5033735;28;20037;-66
2021/04/08 10:32:58;;;;;;;2.58;2.22;;;9.00;69.70;;;;;;5033369;28;20018;-66
2021/04/08 10:35:29;;;;;;;2.53;2.28;;;9.10;69.80;;;;;;5032206;28;20021;-66
2021/04/08 10:38:03;;;;;;;3.63;2.30;;;9.00;70.10;;;;;;5033213;28;20013;-66
2021/04/08 10:40:29;;;;;;;2.20;1.98;;;9.00;69.30;;;;;;5033238;28;20474;-66
2021/04/08 10:43:08;;;;;;;3.10;2.35;;;9.10;69.30;;;;;;5032884;28;20026;-66
2021/04/08 10:45:34;;;;;;;3.83;2.97;;;9.20;68.90;;;;;;5033322;28;20030;-68
2021/04/08 10:48:01;;;;;;;3.10;2.47;;;9.20;68.70;;;;;;5033241;28;20381;-66
2021/04/08 10:50:26;;;;;;;3.88;3.03;;;9.20;68.00;;;;;;5032768;28;20060;-67
2021/04/08 10:52:53;;;;;;;4.28;3.40;;;9.00;68.40;;;;;;5033520;28;20026;-66
2021/04/08 10:55:23;;;;;;;5.97;3.35;;;9.10;68.10;;;;;;5032600;28;20022;-66
2021/04/08 10:57:48;;;;;;;3.78;3.00;;;9.00;67.80;;;;;;5032977;28;20022;-68
2021/04/08 11:00:17;;;;;;;3.47;2.88;;;9.10;67.90;;;;;;5032958;28;20492;-66
2021/04/08 11:02:45;;;;;;;3.92;3.15;;;9.20;67.70;;;;;;5031809;28;20088;-69
2021/04/08 11:05:25;;;;;;;3.88;2.90;;;9.30;67.00;;;;;;5032090;28;20025;-67
2021/04/08 11:07:54;;;;;;;5.20;3.60;;;9.30;67.20;;;;;;5028806;28;20025;-66
2021/04/08 11:10:21;;;;;;;;;;;9.40;66.90;;;;;;5032901;28;20084;-66
2021/04/08 11:12:49;;;;;;;3.25;2.63;;;9.20;67.40;;;;;;5033107;28;19912;-69
2021/04/08 11:15:16;;;;;;;4.78;3.95;;;9.10;67.30;;;;;;5036094;28;20030;-68
2021/04/08 11:17:46;;;;;;;3.97;3.20;;;9.10;67.00;;;;;;5037067;28;20520;-66
2021/04/08 11:20:13;;;;;;;5.53;3.63;;;9.10;66.90;;;;;;5037036;28;20025;-66
2021/04/08 11:22:44;;;;;;;3.67;3.33;;;9.30;66.70;;;;;;5037008;28;20022;-67
2021/04/08 11:25:13;;;;;;;3.92;3.08;;;9.30;66.30;;;;;;5036497;28;20018;-67
2021/04/08 11:27:43;;;;;;;3.08;2.60;;;9.40;66.20;;;;;;5033495;28;20022;-66
2021/04/08 11:30:11;;;;;;;3.72;3.33;;;9.50;66.00;;;;;;5036766;28;20022;-66
2021/04/08 11:32:48;;;;;;;6.72;3.92;;;9.50;65.10;;;;;;5036521;28;20044;-67
2021/04/08 11:35:26;;;;;;;3.63;3.20;;;9.40;65.00;;;;;;5036772;28;20022;-67
2021/04/08 11:38:12;;;;;;;4.27;3.27;;;9.40;65.30;;;;;;5036638;28;20030;-67
2021/04/08 11:40:40;;;;;;;4.78;3.10;;;9.40;65.40;;;;;;5036315;28;20021;-67
2021/04/08 11:43:24;;;;;;;4.15;3.08;;;9.40;65.50;;;;;;5036565;28;20108;-67
2021/04/08 11:45:55;;;;;;;5.40;3.60;;;9.50;64.50;;;;;;5036599;28;20137;-67
2021/04/08 11:48:24;;;;;;;4.28;3.17;;;9.50;64.50;;;;;;5036769;28;20030;-67
2021/04/08 11:50:50;;;;;;;4.55;3.42;;;9.50;64.70;;;;;;5036427;28;20046;-67
2021/04/08 11:53:32;;;;;;;4.63;3.65;;;9.60;64.60;;;;;;5036501;28;20076;-67
2021/04/08 11:55:58;;;;;;;3.47;3.00;;;9.60;64.10;;;;;;5036462;28;20022;-67
2021/04/08 11:58:29;;;;;;;4.10;3.33;;;9.40;64.90;;;;;;5036379;28;20087;-67
2021/04/08 12:01:15;;;;;;;2.83;2.60;;;9.40;65.20;;;;;;5036410;28;20354;-68
2021/04/08 12:03:44;;;;;;;3.28;2.90;;;9.40;65.20;;;;;;5016106;28;20548;-67
2021/04/08 12:06:11;;;;;;;3.78;2.35;;;9.40;65.20;;;;;;5016411;28;20022;-68
2021/04/08 12:08:52;;;;;;;3.33;2.60;;;9.50;65.00;;;;;;5016084;28;20034;-68
2021/04/08 12:11:20;;;;;;;2.70;2.35;;;9.50;65.00;;;;;;5016300;28;20042;-68
2021/04/08 12:14:05;;;;;;;3.17;2.53;;;9.50;65.20;;;;;;5016151;28;20018;-67
2021/04/08 12:16:32;;;;;;;2.45;2.03;;;9.50;65.10;;;;;;5016300;28;20108;-68
2021/04/08 12:18:59;;;;;;;2.45;2.08;;;9.50;65.70;;;;;;5016137;28;20045;-67
2021/04/08 12:21:27;;;;;;;3.40;2.50;;;9.70;65.10;;;;;;5016183;28;20068;-67
2021/04/08 12:23:53;;;;;;;3.97;3.20;;;9.80;64.70;;;;;;5014281;28;20417;-67
2021/04/08 12:26:36;;;;;;;3.42;2.97;;;9.80;64.40;;;;;;5015512;28;20049;-68
2021/04/08 12:29:02;;;;;;;4.55;3.05;;;9.80;64.40;;;;;;5015965;28;20050;-68
2021/04/08 12:31:28;;;;;;;6.43;3.67;;;9.70;64.40;;;;;;5015933;28;20037;-67
2021/04/08 12:33:53;;;;;;;4.47;3.22;;;9.80;64.20;;;;;;5014642;28;20025;-68
2021/04/08 12:36:19;;;;;;;7.38;4.72;;;9.70;64.20;;;;;;5015867;28;20030;-67
2021/04/08 12:38:44;;;;;;;5.25;4.35;;;9.70;64.00;;;;;;5015383;28;20084;-68
2021/04/08 12:41:10;;;;;;;5.75;3.63;;;9.70;63.80;;;;;;5015901;28;20034;-67
2021/04/08 12:43:36;;;;;;;5.53;4.28;;;9.70;64.00;;;;;;5015673;28;20443;-67
2021/04/08 12:46:02;;;;;;;4.40;3.60;;;9.80;63.90;;;;;;5015800;28;20036;-68
2021/04/08 12:48:29;;;;;;;4.72;3.95;;;9.80;63.80;;;;;;5015586;28;20072;-68
2021/04/08 12:50:56;;;;;;;4.75;3.42;;;9.80;63.60;;;;;;5015727;28;20493;-68
2021/04/08 12:53:25;;;;;;;4.60;3.40;;;9.80;63.70;;;;;;5015291;28;20072;-68
2021/04/08 12:55:55;;;;;;;4.90;3.38;;;9.80;63.90;;;;;;5015520;28;20072;-67
2021/04/08 12:58:21;;;;;;;4.70;4.10;;;9.80;63.70;;;;;;5015421;28;20398;-67
2021/04/08 13:00:47;;;;;;;5.18;4.15;;;9.90;63.70;;;;;;5015305;28;20028;-68
2021/04/08 13:03:14;;;;;;;4.75;3.55;;;9.90;63.30;;;;;;5015535;28;20030;-68
2021/04/08 13:05:40;;;;;;;3.17;2.72;;;9.90;63.60;;;;;;5014087;28;20028;-68